createdAt,value
2018-06-07T00:01:57.506Z,13.03
2018-06-07T00:04:25.094Z,14.40
2018-06-07T00:06:52.700Z,15.03
2018-06-07T00:09:20.289Z,14.40
2018-06-07T00:11:47.863Z,15.70
2018-06-07T00:14:15.481Z,14.50
2018-06-07T00:16:43.090Z,13.97
2018-06-07T00:19:10.743Z,14.10
2018-06-07T00:21:38.342Z,14.07
2018-06-07T00:24:05.975Z,14.50
2018-06-07T00:26:33.605Z,15.10
2018-06-07T00:29:01.180Z,14.40
2018-06-07T00:31:28.773Z,15.00
2018-06-07T00:33:56.373Z,14.33
2018-06-07T00:36:23.996Z,14.80
2018-06-07T00:38:51.591Z,14.53
2018-06-07T00:41:19.184Z,13.30
2018-06-07T00:43:46.789Z,14.23
2018-06-07T00:46:14.401Z,14.03
2018-06-07T00:48:42.027Z,13.93
2018-06-07T00:51:09.601Z,14.57
2018-06-07T00:53:37.188Z,15.53
2018-06-07T00:56:04.849Z,15.40
2018-06-07T00:58:32.492Z,15.40
2018-06-07T01:01:00.088Z,14.90
2018-06-07T01:03:27.705Z,14.60
2018-06-07T01:05:55.287Z,14.63
2018-06-07T01:08:22.872Z,15.47
2018-06-07T01:10:50.468Z,15.43
2018-06-07T01:13:18.046Z,15.50
2018-06-07T01:15:45.634Z,14.90
2018-06-07T01:18:13.243Z,14.30
2018-06-07T01:20:40.849Z,12.87
2018-06-07T01:23:08.459Z,13.83
2018-06-07T01:25:36.055Z,14.87
2018-06-07T01:28:03.619Z,14.80
2018-06-07T01:30:36.420Z,14.70
2018-06-07T01:33:26.924Z,12.90
2018-06-07T01:35:55.143Z,12.67
2018-06-07T01:38:28.330Z,12.33
2018-06-07T01:40:55.938Z,11.43
2018-06-07T01:43:23.543Z,15.03
2018-06-07T01:45:51.122Z,16.87
2018-06-07T01:48:18.723Z,14.90
2018-06-07T01:50:46.351Z,15.63
2018-06-07T01:53:13.984Z,14.53
2018-06-07T01:55:41.620Z,14.57
2018-06-07T01:58:09.181Z,14.13
2018-06-07T02:00:36.787Z,13.57
2018-06-07T02:03:04.399Z,16.07
2018-06-07T02:05:31.983Z,14.50
2018-06-07T02:07:59.578Z,15.33
2018-06-07T02:10:27.169Z,15.80
2018-06-07T02:12:54.729Z,14.70
2018-06-07T02:15:22.337Z,14.33
2018-06-07T02:17:49.955Z,14.67
2018-06-07T02:20:17.525Z,15.50
2018-06-07T02:22:45.117Z,14.87
2018-06-07T02:25:12.697Z,15.23
2018-06-07T02:27:40.301Z,15.73
2018-06-07T02:30:07.869Z,16.30
2018-06-07T02:32:35.473Z,15.37
2018-06-07T02:35:03.089Z,15.23
2018-06-07T02:37:30.694Z,14.23
2018-06-07T02:39:58.299Z,14.70
2018-06-07T02:42:25.875Z,14.90
2018-06-07T02:44:53.470Z,14.50
2018-06-07T02:47:21.070Z,14.00
2018-06-07T02:49:48.668Z,15.70
2018-06-07T02:52:16.301Z,14.57
2018-06-07T02:54:43.884Z,15.43
2018-06-07T02:57:11.481Z,15.67
2018-06-07T02:59:39.085Z,14.53
2018-06-07T03:02:06.683Z,14.13
2018-06-07T03:04:34.295Z,14.20
2018-06-07T03:07:01.925Z,14.70
2018-06-07T03:09:29.549Z,14.60
2018-06-07T03:11:57.153Z,14.80
2018-06-07T03:14:24.777Z,14.50
2018-06-07T03:16:52.378Z,15.63
2018-06-07T03:19:19.986Z,13.63
2018-06-07T03:21:47.580Z,13.93
2018-06-07T03:24:15.233Z,14.03
2018-06-07T03:26:42.827Z,14.03
2018-06-07T03:29:10.422Z,14.27
2018-06-07T03:31:38.040Z,14.03
2018-06-07T03:34:05.680Z,14.10
2018-06-07T03:36:33.298Z,13.20
2018-06-07T03:39:00.903Z,12.97
2018-06-07T03:41:28.524Z,13.40
2018-06-07T03:43:56.158Z,13.30
2018-06-07T03:46:23.760Z,13.30
2018-06-07T03:48:51.365Z,13.80
2018-06-07T03:51:18.950Z,13.70
2018-06-07T03:53:46.536Z,14.10
2018-06-07T03:56:14.165Z,14.20
2018-06-07T03:58:41.773Z,15.07
2018-06-07T04:01:09.371Z,14.50
2018-06-07T04:03:36.968Z,14.40
2018-06-07T04:06:04.565Z,15.17
2018-06-07T04:08:32.172Z,15.87
2018-06-07T04:10:59.762Z,15.27
2018-06-07T04:13:27.384Z,15.57
2018-06-07T04:15:54.979Z,14.70
2018-06-07T04:18:22.562Z,14.87
2018-06-07T04:20:50.188Z,15.43
2018-06-07T04:23:17.768Z,16.73
2018-06-07T04:25:45.366Z,16.53
2018-06-07T04:28:12.965Z,17.40
2018-06-07T04:30:40.566Z,17.70
2018-06-07T04:33:08.173Z,17.50
2018-06-07T04:35:35.760Z,17.20
2018-06-07T04:38:03.366Z,18.20
2018-06-07T04:40:30.983Z,17.03
2018-06-07T04:42:58.583Z,16.40
2018-06-07T04:45:26.212Z,18.07
2018-06-07T04:47:53.798Z,16.30
2018-06-07T04:50:21.395Z,18.37
2018-06-07T04:52:49.017Z,17.83
2018-06-07T04:55:16.620Z,18.50
2018-06-07T04:57:44.254Z,18.17
2018-06-07T05:00:11.847Z,20.67
2018-06-07T05:02:39.453Z,19.47
2018-06-07T05:05:07.040Z,21.37
2018-06-07T05:07:34.661Z,22.67
2018-06-07T05:10:02.378Z,21.77
2018-06-07T05:12:30.009Z,20.53
2018-06-07T05:14:57.605Z,21.00
2018-06-07T05:17:25.200Z,20.80
2018-06-07T05:19:52.797Z,20.40
2018-06-07T05:22:20.377Z,21.80
2018-06-07T05:24:47.974Z,20.97
2018-06-07T05:27:15.558Z,20.40
2018-06-07T05:29:43.127Z,19.80
2018-06-07T05:32:10.676Z,20.03
2018-06-07T05:34:38.226Z,20.93
2018-06-07T05:37:05.834Z,20.43
2018-06-07T05:39:33.443Z,20.00
2018-06-07T05:42:01.051Z,21.50
2018-06-07T05:44:28.707Z,19.33
2018-06-07T05:46:56.280Z,21.30
2018-06-07T05:49:23.876Z,20.20
2018-06-07T05:51:57.491Z,19.03
2018-06-07T05:54:56.077Z,20.13
2018-06-07T06:00:57.357Z,21.43
2018-06-07T06:03:56.009Z,20.43
2018-06-07T06:06:28.551Z,22.83
2018-06-07T06:08:56.572Z,22.57
2018-06-07T06:11:26.410Z,22.77
2018-06-07T06:13:56.639Z,21.13
2018-06-07T06:16:26.488Z,21.53
2018-06-07T06:18:54.789Z,22.03
2018-06-07T06:21:22.405Z,21.13
2018-06-07T06:23:50.001Z,21.83
2018-06-07T06:26:18.615Z,19.80
2018-06-07T06:28:46.202Z,20.30
2018-06-07T06:31:13.780Z,19.10
2018-06-07T06:33:44.258Z,19.20
2018-06-07T06:36:11.873Z,18.90
2018-06-07T06:38:40.886Z,18.47
2018-06-07T06:41:08.555Z,18.50
2018-06-07T06:43:36.829Z,18.00
2018-06-07T06:46:27.293Z,16.70
2018-06-07T06:49:00.934Z,17.07
2018-06-07T06:51:29.132Z,16.93
2018-06-07T06:54:36.024Z,17.20
2018-06-07T06:57:04.094Z,16.50
2018-06-07T06:59:32.283Z,17.40
2018-06-07T07:01:59.869Z,16.60
2018-06-07T07:04:27.499Z,17.20
2018-06-07T07:06:55.104Z,15.27
2018-06-07T07:09:22.795Z,16.07
2018-06-07T07:11:50.364Z,15.50
2018-06-07T07:14:18.068Z,14.87
2018-06-07T07:16:45.690Z,14.20
2018-06-07T07:19:13.285Z,13.10
2018-06-07T07:21:40.973Z,14.23
2018-06-07T07:24:08.614Z,12.97
2018-06-07T07:26:40.613Z,12.10
2018-06-07T07:29:08.222Z,11.50
2018-06-07T07:31:35.827Z,11.60
2018-06-07T07:34:03.407Z,12.63
2018-06-07T07:36:30.999Z,12.20
2018-06-07T07:38:58.585Z,12.30
2018-06-07T07:41:26.194Z,11.47
2018-06-07T07:43:53.785Z,11.30
2018-06-07T07:46:21.417Z,11.30
2018-06-07T07:48:49.010Z,12.43
2018-06-07T07:51:16.593Z,11.53
2018-06-07T07:53:44.244Z,11.80
2018-06-07T07:56:11.862Z,11.37
2018-06-07T07:58:39.468Z,11.97
2018-06-07T08:01:07.086Z,12.50
2018-06-07T08:03:34.709Z,12.40
2018-06-07T08:06:02.312Z,11.77
2018-06-07T08:08:30.032Z,11.50
2018-06-07T08:10:57.697Z,11.30
2018-06-07T08:13:29.059Z,11.37
2018-06-07T08:15:56.760Z,11.00
2018-06-07T08:18:24.876Z,11.57
2018-06-07T08:20:52.490Z,10.80
2018-06-07T08:23:20.977Z,12.10
2018-06-07T08:25:48.590Z,11.50
2018-06-07T08:28:16.222Z,11.00
2018-06-07T08:30:44.122Z,11.70
2018-06-07T08:33:11.729Z,12.40
2018-06-07T08:35:39.446Z,10.57
2018-06-07T08:38:07.296Z,10.97
2018-06-07T08:40:34.913Z,10.10
2018-06-07T08:43:02.645Z,11.47
2018-06-07T08:45:30.247Z,11.23
2018-06-07T08:47:57.849Z,9.90
2018-06-07T08:50:25.477Z,10.30
2018-06-07T08:52:53.044Z,10.53
2018-06-07T08:55:20.648Z,9.83
2018-06-07T08:57:48.281Z,11.30
2018-06-07T09:00:15.927Z,11.00
2018-06-07T09:02:43.505Z,11.67
2018-06-07T09:05:11.386Z,10.93
2018-06-07T09:07:38.982Z,11.27
2018-06-07T09:10:06.619Z,11.70
2018-06-07T09:12:34.244Z,11.20
2018-06-07T09:15:01.892Z,11.20
2018-06-07T09:17:29.490Z,10.30
2018-06-07T09:19:57.115Z,11.73
2018-06-07T09:22:24.791Z,11.07
2018-06-07T09:24:52.417Z,11.10
2018-06-07T09:27:23.035Z,11.70
2018-06-07T09:29:50.618Z,12.07
2018-06-07T09:32:18.239Z,12.37
2018-06-07T09:34:45.866Z,10.60
2018-06-07T09:37:13.472Z,13.37
2018-06-07T09:39:41.127Z,11.23
2018-06-07T09:42:08.931Z,11.80
2018-06-07T09:44:37.046Z,11.67
2018-06-07T09:47:04.694Z,11.53
2018-06-07T09:49:32.309Z,11.97
2018-06-07T09:51:59.945Z,11.77
2018-06-07T09:54:27.622Z,11.67
2018-06-07T09:56:55.234Z,13.10
2018-06-07T09:59:22.830Z,11.70
2018-06-07T10:01:50.432Z,12.17
2018-06-07T10:04:18.068Z,12.07
2018-06-07T10:06:45.686Z,12.03
2018-06-07T10:09:13.277Z,11.77
2018-06-07T10:11:40.861Z,12.40
2018-06-07T10:14:08.497Z,12.80
2018-06-07T10:16:36.113Z,12.73
2018-06-07T10:19:03.768Z,13.30
2018-06-07T10:21:31.375Z,13.77
2018-06-07T10:23:58.990Z,12.50
2018-06-07T10:26:26.614Z,12.87
2018-06-07T10:28:54.255Z,14.43
2018-06-07T10:31:21.873Z,12.30
2018-06-07T10:33:49.496Z,12.30
2018-06-07T10:36:17.102Z,12.90
2018-06-07T10:38:44.715Z,13.33
2018-06-07T10:41:12.331Z,12.50
2018-06-07T10:43:39.925Z,12.50
2018-06-07T10:46:07.548Z,13.87
2018-06-07T10:48:35.174Z,12.30
2018-06-07T10:51:02.787Z,12.77
2018-06-07T10:53:30.397Z,12.20
2018-06-07T10:55:58.038Z,12.33
2018-06-07T10:58:25.657Z,12.77
2018-06-07T11:00:53.242Z,13.00
2018-06-07T11:03:20.898Z,12.27
2018-06-07T11:05:48.525Z,13.27
2018-06-07T11:08:16.128Z,11.97
2018-06-07T11:10:43.757Z,11.43
2018-06-07T11:13:11.362Z,13.60
2018-06-07T11:15:38.979Z,11.80
2018-06-07T11:18:06.588Z,12.00
2018-06-07T11:20:34.187Z,11.77
2018-06-07T11:23:01.783Z,12.47
2018-06-07T11:25:29.365Z,12.47
2018-06-07T11:27:56.990Z,11.90
2018-06-07T11:30:24.896Z,13.20
2018-06-07T11:32:52.571Z,11.83
2018-06-07T11:35:20.232Z,11.73
2018-06-07T11:37:47.934Z,11.57
2018-06-07T11:40:15.547Z,11.30
2018-06-07T11:42:43.170Z,11.37
2018-06-07T11:45:10.802Z,11.83
2018-06-07T11:47:38.397Z,10.80
2018-06-07T11:50:06.112Z,11.10
2018-06-07T11:52:33.723Z,11.17
2018-06-07T11:55:01.336Z,12.33
2018-06-07T11:57:28.924Z,12.00
2018-06-07T11:59:56.528Z,11.60
2018-06-07T12:02:24.099Z,12.17
2018-06-07T12:04:51.716Z,12.73
2018-06-07T12:07:19.280Z,12.30
2018-06-07T12:09:46.874Z,12.60
2018-06-07T12:12:14.475Z,11.97
2018-06-07T12:14:42.087Z,12.60
2018-06-07T12:17:09.655Z,11.90
2018-06-07T12:19:37.216Z,12.40
2018-06-07T12:22:04.810Z,12.90
2018-06-07T12:24:32.404Z,12.43
2018-06-07T12:27:00.018Z,11.70
2018-06-07T12:29:27.626Z,12.67
2018-06-07T12:31:55.183Z,12.10
2018-06-07T12:34:22.743Z,12.37
2018-06-07T12:36:50.332Z,10.70
2018-06-07T12:39:17.936Z,10.97
2018-06-07T12:41:45.503Z,11.30
2018-06-07T12:44:13.079Z,11.83
2018-06-07T12:46:40.700Z,11.40
2018-06-07T12:49:09.255Z,11.43
2018-06-07T12:51:36.869Z,12.10
2018-06-07T12:54:04.453Z,11.93
2018-06-07T12:56:32.108Z,12.27
2018-06-07T12:58:59.714Z,11.77
2018-06-07T13:01:27.307Z,12.73
2018-06-07T13:03:54.893Z,12.33
2018-06-07T13:06:22.460Z,12.57
2018-06-07T13:08:50.114Z,13.03
2018-06-07T13:11:17.744Z,11.97
2018-06-07T13:13:45.372Z,12.33
2018-06-07T13:16:12.953Z,13.37
2018-06-07T13:18:40.520Z,12.73
2018-06-07T13:21:08.103Z,11.83
2018-06-07T13:23:35.695Z,12.20
2018-06-07T13:26:03.344Z,11.90
2018-06-07T13:28:30.945Z,12.30
2018-06-07T13:30:58.530Z,13.20
2018-06-07T13:33:26.250Z,13.03
2018-06-07T13:35:54.461Z,12.60
2018-06-07T13:38:32.642Z,13.90
2018-06-07T13:41:03.886Z,12.60
2018-06-07T13:43:31.759Z,13.03
2018-06-07T13:45:59.337Z,13.97
2018-06-07T13:48:26.975Z,13.23
2018-06-07T13:50:55.296Z,13.57
2018-06-07T13:53:22.952Z,14.20
2018-06-07T13:55:50.585Z,13.07
2018-06-07T13:58:18.151Z,13.83
2018-06-07T14:00:45.703Z,13.33
2018-06-07T14:03:13.284Z,13.80
2018-06-07T14:05:40.857Z,12.80
2018-06-07T14:08:08.544Z,13.43
2018-06-07T14:14:00.500Z,13.37
2018-06-07T14:16:28.077Z,14.53
2018-06-07T14:18:55.699Z,13.70
2018-06-07T14:21:23.295Z,14.20
2018-06-07T14:23:50.905Z,13.53
2018-06-07T14:26:18.543Z,14.50
2018-06-07T14:28:46.153Z,14.23
2018-06-07T14:31:13.722Z,14.83
2018-06-07T14:33:41.334Z,14.90
2018-06-07T14:36:08.934Z,13.80
2018-06-07T14:38:36.504Z,14.17
2018-06-07T14:41:04.116Z,14.50
2018-06-07T14:43:31.758Z,13.23
2018-06-07T14:45:59.368Z,15.10
2018-06-07T14:48:26.988Z,14.60
2018-06-07T14:50:54.575Z,14.27
2018-06-07T14:53:22.193Z,14.90
2018-06-07T14:55:49.836Z,15.23
2018-06-07T14:58:17.409Z,15.63
2018-06-07T15:00:45.034Z,15.83
2018-06-07T15:03:12.625Z,17.27
2018-06-07T15:05:40.238Z,18.00
2018-06-07T15:08:07.833Z,17.63
2018-06-07T15:10:35.402Z,18.00
2018-06-07T15:13:03.026Z,17.23
2018-06-07T15:15:30.575Z,16.87
2018-06-07T15:17:58.172Z,16.27
2018-06-07T15:20:25.737Z,16.43
2018-06-07T15:22:53.325Z,17.50
2018-06-07T15:25:20.929Z,16.33
2018-06-07T15:27:48.534Z,16.60
2018-06-07T15:30:16.133Z,16.60
2018-06-07T15:32:43.701Z,17.70
2018-06-07T15:35:11.311Z,17.47
2018-06-07T15:37:38.918Z,17.30
2018-06-07T15:40:06.512Z,17.90
2018-06-07T15:42:34.120Z,17.67
2018-06-07T15:45:01.729Z,16.60
2018-06-07T15:47:29.279Z,16.70
2018-06-07T15:49:56.864Z,16.63
2018-06-07T15:52:24.457Z,15.10
2018-06-07T15:54:52.048Z,15.80
2018-06-07T15:57:19.641Z,15.87
2018-06-07T15:59:47.239Z,16.30
2018-06-07T16:02:14.833Z,16.87
2018-06-07T16:04:42.472Z,15.63
2018-06-07T16:07:10.057Z,17.40
2018-06-07T16:09:37.663Z,16.53
2018-06-07T16:12:05.285Z,14.00
2018-06-07T16:14:32.869Z,14.70
2018-06-07T16:17:00.474Z,11.63
2018-06-07T16:19:28.091Z,12.20
2018-06-07T16:21:55.706Z,12.10
2018-06-07T16:24:23.356Z,11.70
2018-06-07T16:26:50.951Z,11.50
2018-06-07T16:29:18.565Z,10.63
2018-06-07T16:31:46.234Z,9.70
2018-06-07T16:34:13.865Z,10.77
2018-06-07T16:36:41.474Z,10.60
2018-06-07T16:39:09.154Z,8.73
2018-06-07T16:41:36.749Z,8.27
2018-06-07T16:44:04.349Z,7.03
2018-06-07T16:46:31.945Z,6.90
2018-06-07T16:48:59.554Z,7.07
2018-06-07T16:51:27.199Z,5.90
2018-06-07T16:53:54.785Z,6.40
2018-06-07T16:56:22.409Z,5.43
2018-06-07T16:58:50.054Z,5.73
2018-06-07T17:01:17.641Z,5.70
2018-06-07T17:03:45.285Z,6.40
2018-06-07T17:06:12.910Z,5.60
2018-06-07T17:08:40.523Z,5.80
2018-06-07T17:11:08.107Z,5.70
2018-06-07T17:13:35.707Z,6.10
2018-06-07T17:16:03.340Z,6.07
2018-06-07T17:18:30.936Z,5.23
2018-06-07T17:20:58.553Z,5.70
2018-06-07T17:23:26.116Z,5.60
2018-06-07T17:25:53.706Z,4.90
2018-06-07T17:28:21.274Z,6.77
2018-06-07T17:30:48.940Z,6.30
2018-06-07T17:33:16.568Z,6.30
2018-06-07T17:35:44.156Z,5.63
2018-06-07T17:38:11.779Z,6.50
2018-06-07T17:40:39.362Z,4.97
2018-06-07T17:43:06.969Z,5.17
2018-06-07T17:45:34.558Z,5.03
2018-06-07T17:48:02.180Z,4.67
2018-06-07T17:50:29.800Z,4.70
2018-06-07T17:52:57.362Z,5.30
2018-06-07T17:55:24.945Z,5.47
2018-06-07T17:57:52.717Z,4.67
2018-06-07T18:00:20.286Z,4.50
2018-06-07T18:02:47.845Z,4.83
2018-06-07T18:05:15.421Z,4.57
2018-06-07T18:07:43.028Z,5.80
2018-06-07T18:10:10.640Z,4.60
2018-06-07T18:12:38.261Z,4.40
2018-06-07T18:15:05.864Z,3.97
2018-06-07T18:17:33.443Z,4.47
2018-06-07T18:20:01.011Z,3.77
2018-06-07T18:22:28.634Z,4.93
2018-06-07T18:24:56.253Z,3.93
2018-06-07T18:27:23.980Z,4.00
2018-06-07T18:29:51.659Z,4.70
2018-06-07T18:32:19.262Z,4.47
2018-06-07T18:34:46.827Z,4.90
2018-06-07T18:37:14.430Z,4.10
2018-06-07T18:39:42.025Z,3.90
2018-06-07T18:42:09.624Z,4.70
2018-06-07T18:44:37.198Z,4.00
2018-06-07T18:47:04.837Z,4.47
2018-06-07T18:49:32.485Z,5.03
2018-06-07T18:52:00.068Z,4.10
2018-06-07T18:54:27.678Z,3.80
2018-06-07T18:56:55.290Z,3.73
2018-06-07T18:59:22.912Z,4.13
2018-06-07T19:01:50.641Z,4.70
2018-06-07T19:04:18.264Z,4.93
2018-06-07T19:06:45.842Z,3.87
2018-06-07T19:10:18.340Z,4.77
2018-06-07T19:12:45.979Z,4.43
2018-06-07T19:15:14.839Z,4.37
2018-06-07T19:17:42.472Z,4.30
2018-06-07T19:20:15.387Z,4.40
2018-06-07T19:22:43.013Z,4.43
2018-06-07T19:25:15.871Z,4.47
2018-06-07T19:27:43.541Z,5.00
2018-06-07T19:30:11.182Z,5.07
2018-06-07T19:32:44.051Z,4.40
2018-06-07T19:35:13.213Z,4.53
2018-06-07T19:37:40.972Z,4.87
2018-06-07T19:40:14.174Z,4.60
2018-06-07T19:42:41.830Z,5.30
2018-06-07T19:45:09.478Z,5.70
2018-06-07T19:47:37.163Z,5.30
2018-06-07T19:50:05.103Z,4.43
2018-06-07T19:52:32.726Z,4.60
2018-06-07T19:55:00.374Z,4.60
2018-06-07T19:57:28.222Z,5.03
2018-06-07T19:59:55.947Z,4.33
2018-06-07T20:02:23.839Z,4.50
2018-06-07T20:04:51.446Z,4.97
2018-06-07T20:07:19.305Z,4.60
2018-06-07T20:09:46.944Z,5.10
2018-06-07T20:12:14.751Z,4.60
2018-06-07T20:14:42.493Z,4.83
2018-06-07T20:17:10.081Z,4.43
2018-06-07T20:19:37.734Z,5.50
2018-06-07T20:22:05.374Z,6.00
2018-06-07T20:24:33.294Z,6.07
2018-06-07T20:27:00.918Z,6.03
2018-06-07T20:29:35.735Z,6.07
2018-06-07T20:32:03.666Z,5.77
2018-06-07T20:34:31.257Z,5.30
2018-06-07T20:36:58.870Z,5.87
2018-06-07T20:39:26.550Z,4.60
2018-06-07T20:41:54.527Z,4.90
2018-06-07T20:44:22.103Z,5.10
2018-06-07T20:46:49.726Z,5.63
2018-06-07T20:49:17.338Z,5.47
2018-06-07T20:51:44.965Z,5.77
2018-06-07T20:54:12.568Z,6.23
2018-06-07T20:56:40.273Z,6.00
2018-06-07T20:59:07.923Z,5.97
2018-06-07T21:01:35.523Z,5.83
2018-06-07T21:04:03.155Z,7.10
2018-06-07T21:06:30.745Z,6.03
2018-06-07T21:08:58.351Z,6.20
2018-06-07T21:11:25.946Z,5.30
2018-06-07T21:13:53.570Z,5.70
2018-06-07T21:16:21.155Z,5.80
2018-06-07T21:18:49.102Z,5.33
2018-06-07T21:21:16.748Z,5.77
2018-06-07T21:23:44.397Z,5.47
2018-06-07T21:26:12.054Z,6.60
2018-06-07T21:28:39.680Z,5.90
2018-06-07T21:31:07.305Z,6.07
2018-06-07T21:33:34.916Z,5.70
2018-06-07T21:36:02.531Z,5.90
2018-06-07T21:38:30.139Z,5.30
2018-06-07T21:40:57.755Z,5.17
2018-06-07T21:43:25.349Z,5.50
2018-06-07T21:45:52.944Z,5.47
2018-06-07T21:48:20.554Z,6.00
2018-06-07T21:50:48.164Z,5.80
2018-06-07T21:53:15.730Z,6.30
2018-06-07T21:55:43.312Z,6.50
2018-06-07T21:58:10.893Z,6.87
2018-06-07T22:00:38.458Z,5.83
2018-06-07T22:03:06.050Z,6.87
2018-06-07T22:05:33.694Z,6.70
2018-06-07T22:08:01.301Z,6.60
2018-06-07T22:10:28.944Z,6.77
2018-06-07T22:12:56.580Z,6.57
2018-06-07T22:15:24.209Z,7.03
2018-06-07T22:17:51.832Z,6.80
2018-06-07T22:20:19.515Z,6.27
2018-06-07T22:22:47.117Z,7.03
2018-06-07T22:25:14.678Z,6.30
2018-06-07T22:27:42.283Z,6.17
2018-06-07T22:30:09.900Z,6.80
2018-06-07T22:32:37.472Z,6.97
2018-06-07T22:35:05.179Z,7.47
2018-06-07T22:37:32.750Z,7.13
2018-06-07T22:40:00.352Z,6.97
2018-06-07T22:42:27.917Z,6.40
2018-06-07T22:44:55.484Z,7.13
2018-06-07T22:47:23.083Z,6.87
2018-06-07T22:49:50.670Z,7.37
2018-06-07T22:52:18.246Z,7.20
2018-06-07T22:54:45.832Z,7.47
2018-06-07T22:57:13.442Z,7.83
2018-06-07T22:59:41.060Z,7.67
2018-06-07T23:02:08.646Z,6.73
2018-06-07T23:04:36.259Z,7.60
2018-06-07T23:07:03.850Z,8.00
2018-06-07T23:09:31.434Z,7.50
2018-06-07T23:11:59.077Z,6.73
2018-06-07T23:14:26.695Z,7.23
2018-06-07T23:16:54.292Z,7.27
2018-06-07T23:19:21.886Z,7.33
2018-06-07T23:21:49.489Z,6.93
2018-06-07T23:24:17.068Z,6.70
2018-06-07T23:26:44.666Z,6.83
2018-06-07T23:29:12.272Z,6.63
2018-06-07T23:31:39.845Z,6.87
2018-06-07T23:34:07.457Z,6.93
2018-06-07T23:36:35.053Z,7.10
2018-06-07T23:39:02.746Z,6.70
2018-06-07T23:41:30.323Z,6.50
2018-06-07T23:43:57.932Z,7.20
2018-06-07T23:46:25.521Z,7.93
2018-06-07T23:48:53.122Z,6.50
2018-06-07T23:51:20.724Z,7.67
2018-06-07T23:53:48.305Z,7.60
2018-06-07T23:56:15.894Z,7.63
2018-06-07T23:58:43.553Z,6.57
